Time;durP1;ratioP1;P1;durP2;ratioP2;P2;SDS_P1;SDS_P2;PMS_P1;PMS_P2;Temp;Humidity;BMP_temperature;BMP_pressure;BME280_temperature;BME280_humidity;BME280_pressure;Samples;Min_cycle;Max_cycle;Signal;HPM_P1;HPM_P2
2021/03/13 00:00:55;;;;;;;1.90;0.60;;;5.10;99.90;;;;;;5006512;28;20417;-75
2021/03/13 00:03:21;;;;;;;1.43;1.00;;;5.10;99.90;;;;;;5001325;28;20192;-74
2021/03/13 00:05:47;;;;;;;1.50;0.70;;;5.20;99.90;;;;;;5001511;28;20222;-75
2021/03/13 00:08:13;;;;;;;1.70;0.70;;;5.20;99.90;;;;;;5005417;28;20189;-74
2021/03/13 00:10:42;;;;;;;0.57;0.50;;;5.30;99.90;;;;;;5007401;28;20585;-75
2021/03/13 00:13:09;;;;;;;0.73;0.70;;;5.30;99.90;;;;;;5005481;28;20430;-74
2021/03/13 00:15:36;;;;;;;0.60;0.60;;;5.30;99.90;;;;;;5000922;28;20493;-74
2021/03/13 00:18:02;;;;;;;0.40;0.40;;;5.30;99.90;;;;;;5006406;28;20435;-75
2021/03/13 00:20:30;;;;;;;0.80;0.50;;;5.30;99.90;;;;;;5005509;28;20886;-75
2021/03/13 00:22:58;;;;;;;0.50;0.50;;;5.30;99.90;;;;;;5004194;28;20434;-75
2021/03/13 00:25:25;;;;;;;0.70;0.50;;;5.30;99.90;;;;;;5003118;28;20455;-75
2021/03/13 00:27:52;;;;;;;3.90;0.60;;;5.30;99.90;;;;;;5000646;28;20502;-74
2021/03/13 00:30:21;;;;;;;1.03;0.70;;;5.20;99.90;;;;;;5008286;28;20523;-75
2021/03/13 00:32:49;;;;;;;3.53;0.60;;;5.20;99.90;;;;;;5012244;28;20932;-74
2021/03/13 00:35:15;;;;;;;3.43;0.60;;;5.20;99.90;;;;;;5011985;28;20433;-74
2021/03/13 00:37:41;;;;;;;1.17;0.77;;;5.20;99.90;;;;;;5008349;28;20433;-75
2021/03/13 00:40:10;;;;;;;0.60;0.50;;;5.30;99.90;;;;;;5003880;28;20471;-75
2021/03/13 00:42:36;;;;;;;0.80;0.47;;;5.30;99.90;;;;;;5012191;28;20451;-74
2021/03/13 00:45:03;;;;;;;2.30;0.60;;;5.30;99.90;;;;;;5005879;28;20465;-75
2021/03/13 00:47:29;;;;;;;0.80;0.50;;;5.30;99.90;;;;;;5007133;28;20212;-74
2021/03/13 00:49:54;;;;;;;1.83;0.70;;;5.30;99.90;;;;;;5004872;28;21012;-75
2021/03/13 00:52:20;;;;;;;1.90;0.50;;;5.40;99.90;;;;;;5003868;28;20186;-74
2021/03/13 00:54:45;;;;;;;3.70;0.50;;;5.40;99.90;;;;;;5003522;28;20184;-75
2021/03/13 00:57:11;;;;;;;0.90;0.90;;;5.40;99.90;;;;;;5004915;28;20193;-74
2021/03/13 00:59:36;;;;;;;0.50;0.40;;;5.50;99.90;;;;;;5011652;28;20225;-74
2021/03/13 01:02:02;;;;;;;1.33;0.60;;;5.60;99.90;;;;;;4999790;28;20201;-74
2021/03/13 01:04:28;;;;;;;1.43;0.70;;;5.60;99.90;;;;;;5007233;28;20217;-75
2021/03/13 01:06:53;;;;;;;1.40;0.43;;;5.70;99.90;;;;;;5007379;28;20654;-75
2021/03/13 01:09:19;;;;;;;2.60;0.43;;;5.70;99.90;;;;;;5002943;28;20203;-75
2021/03/13 01:11:44;;;;;;;1.83;0.40;;;5.70;99.90;;;;;;5008859;28;20186;-74
2021/03/13 01:14:10;;;;;;;0.60;0.40;;;5.60;99.90;;;;;;5004332;28;20556;-74
2021/03/13 01:16:36;;;;;;;0.50;0.50;;;5.50;99.90;;;;;;5005513;28;20190;-74
2021/03/13 01:19:02;;;;;;;0.40;0.40;;;5.40;99.90;;;;;;5010294;28;20618;-75
2021/03/13 01:21:28;;;;;;;3.60;0.40;;;5.40;99.90;;;;;;5008732;28;20553;-73
2021/03/13 01:23:53;;;;;;;1.70;0.40;;;5.40;99.90;;;;;;5006918;28;20186;-74
2021/03/13 01:26:18;;;;;;;0.40;0.40;;;5.40;99.90;;;;;;4998746;28;20278;-74
2021/03/13 01:28:44;;;;;;;0.60;0.40;;;5.40;99.90;;;;;;4999507;28;20209;-75
2021/03/13 01:31:10;;;;;;;0.40;0.40;;;5.40;99.90;;;;;;5010469;28;20192;-74
2021/03/13 01:33:35;;;;;;;2.20;0.40;;;5.40;99.90;;;;;;5002952;28;20189;-74
2021/03/13 01:36:01;;;;;;;0.30;0.30;;;5.30;99.90;;;;;;5008289;28;20199;-75
2021/03/13 01:38:26;;;;;;;1.80;0.40;;;5.30;99.90;;;;;;5002103;28;20188;-74
2021/03/13 01:40:52;;;;;;;2.00;0.50;;;5.30;99.90;;;;;;5001805;28;20196;-75
2021/03/13 01:43:18;;;;;;;0.70;0.50;;;5.30;99.90;;;;;;5006698;28;20212;-74
2021/03/13 01:45:43;;;;;;;0.40;0.40;;;5.30;99.90;;;;;;5011346;28;20492;-75
2021/03/13 01:48:09;;;;;;;0.40;0.40;;;5.20;99.90;;;;;;5007137;28;20191;-75
2021/03/13 01:50:35;;;;;;;1.43;0.50;;;5.20;99.90;;;;;;5001706;28;20200;-74
2021/03/13 01:53:01;;;;;;;0.70;0.40;;;5.10;99.90;;;;;;5007117;28;20183;-75
2021/03/13 01:55:26;;;;;;;1.90;0.43;;;5.10;99.90;;;;;;5010612;28;20772;-74
2021/03/13 01:57:52;;;;;;;1.97;0.50;;;5.00;99.90;;;;;;4999430;28;20596;-75
2021/03/13 02:00:21;;;;;;;0.50;0.47;;;5.00;99.90;;;;;;5006224;28;20683;-74
2021/03/13 02:02:47;;;;;;;0.50;0.50;;;5.00;99.90;;;;;;5007311;28;20552;-75
2021/03/13 02:05:24;;;;;;;0.93;0.50;;;5.00;99.90;;;;;;5005280;28;20474;-75
2021/03/13 02:08:25;;;;;;;0.60;0.50;;;5.00;99.90;;;;;;5000176;28;20497;-74
2021/03/13 02:11:15;;;;;;;1.43;0.50;;;4.90;99.90;;;;;;5003767;28;20431;-74
2021/03/13 02:13:59;;;;;;;0.83;0.40;;;4.90;99.90;;;;;;5004393;28;20501;-75
2021/03/13 02:16:50;;;;;;;0.53;0.50;;;5.00;99.90;;;;;;5006847;28;20427;-74
2021/03/13 02:19:34;;;;;;;2.83;0.50;;;5.00;99.90;;;;;;5007444;28;20450;-74
2021/03/13 02:22:05;;;;;;;1.37;0.93;;;5.00;99.90;;;;;;5010272;28;20474;-72
2021/03/13 02:25:00;;;;;;;1.23;0.50;;;5.00;99.90;;;;;;5010706;28;20562;-74
2021/03/13 02:27:40;;;;;;;0.97;0.60;;;4.90;99.90;;;;;;5003798;28;20454;-75
2021/03/13 02:30:19;;;;;;;0.70;0.60;;;4.90;99.90;;;;;;5011881;28;20481;-75
2021/03/13 02:33:22;;;;;;;1.13;0.60;;;5.00;99.90;;;;;;5008552;28;20504;-74
2021/03/13 02:35:56;;;;;;;3.83;0.60;;;5.10;99.90;;;;;;5007372;28;20418;-75
2021/03/13 02:38:32;;;;;;;2.97;0.90;;;5.20;99.90;;;;;;5007855;28;20440;-74
2021/03/13 02:41:04;;;;;;;3.13;1.00;;;5.20;99.90;;;;;;5009747;28;22643;-74
2021/03/13 02:43:32;;;;;;;1.33;0.90;;;5.30;99.90;;;;;;5007250;28;20957;-75
2021/03/13 02:46:00;;;;;;;1.23;0.90;;;5.40;99.90;;;;;;5009572;28;20524;-75
2021/03/13 02:48:28;;;;;;;7.73;1.23;;;5.60;99.90;;;;;;5009616;28;20853;-72
2021/03/13 02:50:55;;;;;;;1.80;0.60;;;5.70;99.90;;;;;;5008614;28;20451;-75
2021/03/13 02:53:23;;;;;;;3.80;0.80;;;5.80;99.90;;;;;;5002589;28;20941;-75
2021/03/13 02:55:50;;;;;;;2.50;1.10;;;5.80;99.90;;;;;;5006952;28;20462;-75
2021/03/13 02:58:18;;;;;;;3.30;1.47;;;5.80;99.90;;;;;;5002669;28;20453;-73
2021/03/13 03:00:45;;;;;;;3.13;0.70;;;5.90;99.90;;;;;;5009223;28;20443;-75
2021/03/13 03:03:11;;;;;;;4.13;0.83;;;5.90;99.90;;;;;;5007791;28;20431;-74
2021/03/13 03:05:38;;;;;;;2.77;0.70;;;5.90;99.90;;;;;;5005187;28;20476;-75
2021/03/13 03:08:06;;;;;;;1.70;0.93;;;5.90;99.90;;;;;;5001420;28;20797;-75
2021/03/13 03:10:36;;;;;;;4.33;0.77;;;5.90;99.90;;;;;;5008964;28;20465;-75
2021/03/13 03:13:02;;;;;;;3.03;1.00;;;5.90;99.90;;;;;;5005547;28;20500;-75
2021/03/13 03:15:31;;;;;;;2.23;0.70;;;5.90;99.90;;;;;;5008727;28;20441;-75
2021/03/13 03:17:59;;;;;;;5.93;0.90;;;6.00;99.90;;;;;;5004434;28;20433;-75
2021/03/13 03:20:26;;;;;;;2.97;1.73;;;6.00;99.90;;;;;;5008609;28;20488;-74
2021/03/13 03:22:52;;;;;;;1.53;0.60;;;6.10;99.90;;;;;;5011024;28;20449;-74
2021/03/13 03:25:18;;;;;;;3.50;0.87;;;6.10;99.90;;;;;;5009301;28;20972;-74
2021/03/13 03:27:50;;;;;;;2.67;0.70;;;6.10;99.90;;;;;;5010604;28;20428;-75
2021/03/13 03:30:36;;;;;;;2.50;0.80;;;6.10;99.90;;;;;;5012063;28;20208;-75
2021/03/13 03:33:03;;;;;;;3.30;0.87;;;6.20;99.90;;;;;;5008145;28;20803;-75
2021/03/13 03:35:29;;;;;;;6.47;0.97;;;6.20;99.90;;;;;;5003966;28;20471;-75
2021/03/13 03:37:59;;;;;;;1.67;0.70;;;6.20;99.90;;;;;;5012709;28;20455;-74
2021/03/13 03:40:26;;;;;;;1.73;1.30;;;6.20;99.90;;;;;;5007147;28;20480;-74
2021/03/13 03:43:26;;;;;;;4.87;0.77;;;6.30;99.90;;;;;;5005890;28;20434;-75
2021/03/13 03:45:56;;;;;;;1.50;0.80;;;6.30;99.90;;;;;;4983547;28;20544;-74
2021/03/13 03:48:23;;;;;;;3.93;0.90;;;6.40;99.90;;;;;;5002317;28;20891;-75
2021/03/13 03:50:49;;;;;;;2.37;0.80;;;6.40;99.90;;;;;;5007002;28;20470;-75
2021/03/13 03:53:22;;;;;;;4.43;0.90;;;6.40;99.90;;;;;;5001768;28;20440;-75
2021/03/13 03:55:50;;;;;;;3.70;0.90;;;6.40;99.90;;;;;;5010972;28;20454;-74
2021/03/13 03:58:23;;;;;;;4.00;1.07;;;6.40;99.90;;;;;;5005970;28;20438;-73
2021/03/13 04:00:50;;;;;;;2.87;1.13;;;6.50;99.90;;;;;;5007900;28;20941;-75
2021/03/13 04:03:17;;;;;;;1.40;0.80;;;6.40;99.90;;;;;;5009710;28;20424;-75
2021/03/13 04:05:44;;;;;;;2.83;1.03;;;6.40;99.90;;;;;;5011088;28;20465;-75
2021/03/13 04:08:12;;;;;;;1.73;0.70;;;6.40;99.90;;;;;;5009215;28;20481;-75
2021/03/13 04:10:42;;;;;;;2.97;0.70;;;6.30;99.90;;;;;;5008719;28;20545;-75
2021/03/13 04:13:08;;;;;;;3.40;1.07;;;6.40;99.90;;;;;;5007607;28;20922;-75
2021/03/13 04:15:35;;;;;;;1.90;0.80;;;6.40;99.90;;;;;;5003100;28;20869;-75
2021/03/13 04:18:01;;;;;;;1.53;0.77;;;6.30;99.90;;;;;;5007792;28;20442;-74
2021/03/13 04:20:28;;;;;;;2.33;0.93;;;6.40;99.90;;;;;;5011191;28;20565;-76
2021/03/13 04:22:54;;;;;;;3.60;1.43;;;6.30;99.90;;;;;;5010154;28;20187;-75
2021/03/13 04:25:20;;;;;;;2.73;1.07;;;6.30;99.90;;;;;;5004132;28;20476;-75
2021/03/13 04:27:45;;;;;;;0.70;0.63;;;6.30;99.90;;;;;;5012299;28;21096;-75
2021/03/13 04:30:15;;;;;;;2.67;0.83;;;6.30;99.90;;;;;;5010754;28;20545;-75
2021/03/13 04:32:42;;;;;;;2.10;0.70;;;6.40;99.90;;;;;;5003240;28;20220;-75
2021/03/13 04:35:09;;;;;;;1.00;0.73;;;6.40;99.90;;;;;;5007657;28;20447;-75
2021/03/13 04:37:37;;;;;;;1.80;0.70;;;6.40;99.90;;;;;;5004764;28;20807;-75
2021/03/13 04:40:03;;;;;;;2.17;0.77;;;6.40;99.90;;;;;;5007123;28;20493;-75
2021/03/13 04:42:30;;;;;;;0.77;0.70;;;6.40;99.90;;;;;;5007439;28;20955;-74
2021/03/13 04:44:55;;;;;;;2.73;0.70;;;6.40;99.90;;;;;;5007151;28;20478;-75
2021/03/13 04:47:21;;;;;;;2.97;0.57;;;6.40;99.90;;;;;;5006176;28;20517;-75
2021/03/13 04:49:46;;;;;;;1.10;0.70;;;6.50;99.90;;;;;;5007264;28;20209;-74
2021/03/13 04:52:12;;;;;;;1.87;0.67;;;6.50;99.90;;;;;;5008365;28;20288;-75
2021/03/13 04:54:38;;;;;;;2.83;0.70;;;6.60;99.90;;;;;;5009926;28;20271;-75
2021/03/13 04:57:03;;;;;;;2.53;0.70;;;6.50;99.90;;;;;;5006400;28;20660;-75
2021/03/13 04:59:29;;;;;;;0.80;0.70;;;6.50;99.90;;;;;;5003387;28;20205;-75
2021/03/13 05:01:55;;;;;;;0.67;0.50;;;6.50;99.90;;;;;;5023476;28;20196;-74
2021/03/13 05:04:20;;;;;;;1.23;0.50;;;6.40;99.90;;;;;;5002853;28;20417;-75
2021/03/13 05:06:46;;;;;;;3.97;0.50;;;6.40;99.90;;;;;;5008828;28;20265;-75
2021/03/13 05:09:11;;;;;;;10.33;0.80;;;6.40;99.90;;;;;;5004887;28;20293;-75
2021/03/13 05:11:37;;;;;;;1.70;0.60;;;6.50;99.90;;;;;;5006827;28;20182;-75
2021/03/13 05:14:03;;;;;;;4.10;0.60;;;6.40;99.90;;;;;;5001379;28;20623;-75
2021/03/13 05:16:29;;;;;;;1.00;0.50;;;6.50;99.90;;;;;;5010888;28;20183;-75
2021/03/13 05:18:55;;;;;;;1.30;0.80;;;6.50;99.90;;;;;;5011431;28;20223;-75
2021/03/13 05:21:21;;;;;;;1.23;0.60;;;6.50;99.90;;;;;;5011569;28;20438;-75
2021/03/13 05:23:47;;;;;;;0.80;0.50;;;6.50;99.90;;;;;;5003589;28;20437;-75
2021/03/13 05:26:12;;;;;;;0.67;0.60;;;6.50;99.90;;;;;;4999367;28;20467;-75
2021/03/13 05:28:38;;;;;;;2.60;0.50;;;6.60;99.90;;;;;;5000774;28;20207;-74
2021/03/13 05:31:03;;;;;;;0.80;0.60;;;6.50;99.90;;;;;;5001752;28;20658;-76
2021/03/13 05:33:29;;;;;;;0.93;0.50;;;6.60;99.90;;;;;;5004352;28;20180;-75
2021/03/13 05:35:54;;;;;;;2.80;0.53;;;6.60;99.90;;;;;;5004924;28;20275;-75
2021/03/13 05:38:20;;;;;;;3.80;0.70;;;6.60;99.90;;;;;;5010539;28;20647;-75
2021/03/13 05:40:45;;;;;;;3.00;0.60;;;6.70;99.90;;;;;;5004973;28;20185;-76
2021/03/13 05:43:12;;;;;;;2.20;0.73;;;6.70;99.90;;;;;;5006332;28;20194;-75
2021/03/13 05:45:39;;;;;;;3.07;0.50;;;6.80;99.90;;;;;;5010869;28;20703;-75
2021/03/13 05:48:08;;;;;;;1.27;0.53;;;6.80;99.90;;;;;;5011419;28;20476;-74
2021/03/13 05:50:35;;;;;;;0.57;0.57;;;6.90;99.90;;;;;;5007742;28;20464;-76
2021/03/13 05:53:03;;;;;;;2.40;0.63;;;7.00;99.90;;;;;;5002114;28;20466;-75
2021/03/13 05:55:29;;;;;;;3.03;1.10;;;7.00;99.90;;;;;;5002545;28;20977;-73
2021/03/13 05:57:54;;;;;;;0.60;0.50;;;7.00;99.90;;;;;;5007410;28;20446;-74
2021/03/13 06:00:22;;;;;;;5.00;1.50;;;7.10;99.90;;;;;;5000520;28;20442;-71
2021/03/13 06:02:49;;;;;;;0.87;0.70;;;7.20;99.90;;;;;;5007562;28;20268;-71
2021/03/13 06:05:15;;;;;;;2.70;0.67;;;7.20;99.90;;;;;;5005856;28;20578;-71
2021/03/13 06:07:44;;;;;;;1.73;0.60;;;7.30;99.90;;;;;;5007008;28;20506;-71
2021/03/13 06:10:14;;;;;;;2.77;0.77;;;7.40;99.90;;;;;;5007196;28;20461;-70
2021/03/13 06:12:40;;;;;;;3.07;0.60;;;7.40;99.90;;;;;;5004071;28;20452;-71
2021/03/13 06:15:07;;;;;;;0.90;0.60;;;7.40;99.90;;;;;;5011033;28;20423;-71
2021/03/13 06:17:51;;;;;;;2.60;0.70;;;7.40;99.90;;;;;;5004915;28;20793;-70
2021/03/13 06:20:34;;;;;;;1.67;0.57;;;7.40;99.90;;;;;;5008694;28;20520;-70
2021/03/13 06:23:17;;;;;;;2.40;0.97;;;7.50;99.90;;;;;;5006773;28;20413;-70
2021/03/13 06:25:43;;;;;;;2.90;0.73;;;7.70;99.90;;;;;;5010175;28;20466;-71
2021/03/13 06:28:20;;;;;;;4.00;0.60;;;7.80;99.90;;;;;;5004779;28;20781;-70
2021/03/13 06:30:49;;;;;;;2.40;0.50;;;7.90;99.90;;;;;;5010885;28;21148;-70
2021/03/13 06:33:23;;;;;;;4.40;0.90;;;8.00;99.90;;;;;;5005841;28;20428;-71
2021/03/13 06:35:50;;;;;;;2.67;0.70;;;8.00;99.90;;;;;;5008991;28;20488;-70
2021/03/13 06:38:21;;;;;;;0.90;0.50;;;8.10;99.90;;;;;;5010576;28;20449;-70
2021/03/13 06:40:48;;;;;;;2.47;0.73;;;8.30;99.90;;;;;;5006338;28;20434;-70
2021/03/13 06:43:32;;;;;;;3.50;0.67;;;9.00;99.90;;;;;;5004009;28;20432;-69
2021/03/13 06:46:05;;;;;;;1.50;0.70;;;9.40;99.90;;;;;;5004390;28;20471;-69
2021/03/13 06:48:35;;;;;;;2.30;0.57;;;9.30;99.90;;;;;;5002605;28;20809;-70
2021/03/13 06:51:18;;;;;;;5.47;0.60;;;9.40;99.90;;;;;;5006177;28;20440;-70
2021/03/13 06:53:46;;;;;;;2.20;0.70;;;9.30;99.90;;;;;;5004611;28;20452;-69
2021/03/13 06:56:12;;;;;;;1.53;0.80;;;9.10;99.90;;;;;;5007680;28;21015;-70
2021/03/13 06:58:39;;;;;;;0.57;0.50;;;9.00;99.90;;;;;;5003647;28;20475;-70
2021/03/13 07:01:06;;;;;;;4.23;1.00;;;8.90;99.90;;;;;;5007473;28;20439;-70
2021/03/13 07:03:32;;;;;;;1.47;1.03;;;8.90;99.90;;;;;;5002834;28;20419;-70
2021/03/13 07:05:58;;;;;;;4.60;1.10;;;8.90;99.90;;;;;;5007532;28;20986;-70
2021/03/13 07:08:31;;;;;;;1.50;0.60;;;9.30;99.90;;;;;;5003480;28;20422;-70
2021/03/13 07:11:03;;;;;;;3.23;0.77;;;10.50;99.90;;;;;;5008244;28;20859;-70
2021/03/13 07:13:34;;;;;;;1.90;0.50;;;11.30;99.90;;;;;;5000324;28;20422;-70
2021/03/13 07:16:19;;;;;;;5.73;0.67;;;10.80;99.90;;;;;;5003658;28;20856;-70
2021/03/13 07:18:45;;;;;;;1.57;0.50;;;10.50;99.90;;;;;;5002581;28;20475;-69
2021/03/13 07:21:13;;;;;;;3.23;0.50;;;10.20;99.90;;;;;;5004411;28;20794;-70
2021/03/13 07:23:42;;;;;;;3.17;0.80;;;10.30;99.90;;;;;;5004590;28;20440;-70
2021/03/13 07:26:09;;;;;;;0.90;0.67;;;11.10;99.90;;;;;;5006202;28;20842;-70
2021/03/13 07:28:35;;;;;;;3.03;1.07;;;11.60;99.90;;;;;;5009012;28;21103;-73
2021/03/13 07:31:04;;;;;;;0.90;0.60;;;12.20;99.90;;;;;;5007364;28;20424;-74
2021/03/13 07:33:31;;;;;;;3.10;0.70;;;12.40;99.90;;;;;;5005546;28;20433;-73
2021/03/13 07:35:57;;;;;;;1.20;0.60;;;13.00;99.90;;;;;;5008151;28;20447;-73
2021/03/13 07:38:26;;;;;;;2.77;0.70;;;13.30;99.90;;;;;;5004275;28;20934;-71
2021/03/13 07:40:54;;;;;;;1.50;0.60;;;12.80;99.90;;;;;;5009407;28;20197;-72
2021/03/13 07:43:20;;;;;;;2.20;0.60;;;12.50;99.90;;;;;;5002775;28;20542;-71
2021/03/13 07:45:47;;;;;;;2.10;0.60;;;12.00;99.90;;;;;;5004154;28;20824;-71
2021/03/13 07:48:14;;;;;;;1.17;0.50;;;11.70;99.90;;;;;;5004121;28;20530;-71
2021/03/13 07:50:41;;;;;;;1.30;0.70;;;11.50;99.90;;;;;;5008703;28;20914;-71
2021/03/13 07:53:09;;;;;;;2.70;0.63;;;11.70;99.90;;;;;;5002982;28;20535;-72
2021/03/13 07:55:35;;;;;;;0.90;0.60;;;11.60;99.90;;;;;;5004954;28;20498;-72
2021/03/13 07:58:02;;;;;;;1.37;1.00;;;11.40;99.90;;;;;;5005664;28;20836;-73
2021/03/13 08:00:44;;;;;;;1.37;0.70;;;11.20;99.90;;;;;;5003573;28;20983;-72
2021/03/13 08:03:34;;;;;;;0.90;0.40;;;10.90;99.90;;;;;;5003917;28;20421;-72
2021/03/13 08:06:04;;;;;;;1.27;0.70;;;10.60;99.90;;;;;;4995507;28;20488;-71
2021/03/13 08:08:33;;;;;;;7.17;0.60;;;10.40;99.90;;;;;;5006502;28;20936;-71
2021/03/13 08:10:59;;;;;;;2.23;0.57;;;10.20;99.90;;;;;;5004083;28;20449;-71
2021/03/13 08:13:27;;;;;;;4.10;0.67;;;10.10;99.90;;;;;;5008145;28;20443;-72
2021/03/13 08:16:06;;;;;;;1.60;0.50;;;10.00;99.90;;;;;;5006611;28;20185;-71
2021/03/13 08:18:48;;;;;;;1.50;0.67;;;10.10;99.90;;;;;;5004705;28;20918;-71
2021/03/13 08:21:19;;;;;;;1.20;0.53;;;10.40;99.90;;;;;;5005550;28;20827;-72
2021/03/13 08:23:52;;;;;;;3.20;0.70;;;10.70;99.90;;;;;;5004599;28;20436;-72
2021/03/13 08:26:20;;;;;;;1.00;0.50;;;10.60;99.90;;;;;;5007086;28;20471;-71
2021/03/13 08:28:45;;;;;;;4.80;0.50;;;10.60;99.90;;;;;;5011316;28;20531;-71
2021/03/13 08:31:31;;;;;;;1.37;0.60;;;10.70;99.90;;;;;;5003480;28;20536;-71
2021/03/13 08:34:06;;;;;;;0.77;0.53;;;11.20;99.90;;;;;;5002096;28;20180;-70
2021/03/13 08:36:33;;;;;;;1.57;0.50;;;11.60;99.90;;;;;;5010803;28;20446;-70
2021/03/13 08:39:04;;;;;;;0.70;0.47;;;11.70;99.90;;;;;;5011821;28;20459;-70
2021/03/13 08:41:42;;;;;;;0.93;0.40;;;11.70;99.90;;;;;;5010701;28;21004;-71
2021/03/13 08:44:11;;;;;;;0.50;0.50;;;12.00;99.90;;;;;;5008698;28;20438;-72
2021/03/13 08:46:49;;;;;;;3.57;0.50;;;12.30;99.90;;;;;;5008356;28;20477;-71
2021/03/13 08:49:20;;;;;;;1.13;0.47;;;12.70;99.90;;;;;;5005558;28;20530;-72
2021/03/13 08:51:46;;;;;;;0.50;0.50;;;12.80;99.90;;;;;;5001373;28;20434;-71
2021/03/13 08:54:11;;;;;;;1.17;1.00;;;12.50;99.90;;;;;;5007679;28;20441;-72
2021/03/13 08:56:44;;;;;;;4.03;0.70;;;12.00;99.90;;;;;;5007158;28;20190;-71
2021/03/13 08:59:10;;;;;;;1.63;0.50;;;11.80;99.90;;;;;;5005711;28;20212;-74
2021/03/13 09:01:35;;;;;;;1.30;0.60;;;11.70;99.90;;;;;;5006738;28;20943;-72
2021/03/13 09:04:01;;;;;;;3.27;0.50;;;11.50;99.90;;;;;;5004657;28;20206;-72
2021/03/13 09:06:27;;;;;;;0.80;0.43;;;11.60;99.90;;;;;;5003206;28;20307;-71
2021/03/13 09:09:11;;;;;;;1.10;0.53;;;11.50;99.90;;;;;;5011687;28;20197;-71
2021/03/13 09:11:37;;;;;;;2.67;0.60;;;11.40;99.90;;;;;;5009766;28;20188;-72
2021/03/13 09:14:03;;;;;;;2.30;0.87;;;11.30;99.90;;;;;;5003321;28;20440;-71
2021/03/13 09:16:40;;;;;;;2.10;0.60;;;11.20;99.90;;;;;;5012447;28;20835;-71
2021/03/13 09:19:12;;;;;;;2.30;0.50;;;11.10;99.90;;;;;;5010953;28;20466;-70
2021/03/13 09:21:39;;;;;;;0.77;0.70;;;10.90;99.90;;;;;;5009486;28;20426;-70
2021/03/13 09:24:06;;;;;;;2.47;0.50;;;11.00;99.90;;;;;;5007087;28;20519;-70
2021/03/13 09:26:32;;;;;;;1.87;0.50;;;11.00;99.90;;;;;;5003645;28;20459;-69
2021/03/13 09:28:57;;;;;;;1.67;0.90;;;11.10;99.90;;;;;;5010563;28;20469;-70
2021/03/13 09:31:23;;;;;;;0.70;0.53;;;11.30;99.90;;;;;;5002961;28;20261;-70
2021/03/13 09:33:48;;;;;;;0.60;0.53;;;11.40;99.90;;;;;;4999510;28;20668;-71
2021/03/13 09:36:14;;;;;;;1.50;0.50;;;11.40;99.90;;;;;;5003374;28;20782;-70
2021/03/13 09:38:56;;;;;;;2.77;0.50;;;11.40;99.90;;;;;;5001004;28;20649;-70
2021/03/13 09:41:22;;;;;;;1.23;0.50;;;11.40;99.90;;;;;;5004872;28;20966;-71
2021/03/13 09:43:48;;;;;;;2.73;0.60;;;11.30;99.90;;;;;;5012421;28;20505;-70
2021/03/13 09:46:18;;;;;;;2.37;0.50;;;11.20;99.90;;;;;;5009802;28;20241;-71
2021/03/13 09:48:43;;;;;;;0.80;0.50;;;11.20;99.90;;;;;;5010728;28;20446;-71
2021/03/13 09:51:09;;;;;;;1.30;0.53;;;11.10;99.90;;;;;;5010315;28;20480;-71
2021/03/13 09:53:41;;;;;;;1.10;0.50;;;11.20;99.90;;;;;;5011450;28;20415;-71
2021/03/13 09:56:07;;;;;;;0.60;0.50;;;11.30;99.90;;;;;;5008784;28;20215;-71
2021/03/13 09:58:33;;;;;;;4.33;0.80;;;11.40;99.90;;;;;;5011717;28;20479;-71
2021/03/13 10:00:58;;;;;;;4.87;0.50;;;11.40;99.90;;;;;;5010909;28;20563;-71
2021/03/13 10:03:25;;;;;;;3.43;0.70;;;11.40;99.90;;;;;;5011324;28;20441;-71
2021/03/13 10:05:52;;;;;;;4.23;0.70;;;11.40;99.90;;;;;;5009419;28;20213;-71
2021/03/13 10:08:18;;;;;;;0.60;0.40;;;11.40;99.90;;;;;;5010434;28;20483;-70
2021/03/13 10:10:49;;;;;;;0.97;0.50;;;11.40;99.90;;;;;;5002523;28;21120;-70
2021/03/13 10:13:17;;;;;;;2.97;0.60;;;11.20;99.90;;;;;;5012540;28;20428;-71
2021/03/13 10:15:44;;;;;;;1.07;0.50;;;11.10;99.90;;;;;;5000794;28;20423;-70
2021/03/13 10:18:10;;;;;;;0.90;0.60;;;11.10;99.90;;;;;;5003314;28;20535;-70
2021/03/13 10:20:45;;;;;;;1.33;0.63;;;11.00;99.90;;;;;;5000146;28;20456;-71
2021/03/13 10:23:13;;;;;;;1.00;0.67;;;11.00;99.90;;;;;;5010707;28;20429;-71
2021/03/13 10:25:40;;;;;;;1.47;0.50;;;10.90;99.90;;;;;;5010343;28;20465;-71
2021/03/13 10:28:11;;;;;;;0.60;0.40;;;11.00;99.90;;;;;;5009426;28;20795;-71
2021/03/13 10:30:44;;;;;;;1.90;0.50;;;11.00;99.90;;;;;;5000507;28;20445;-70
2021/03/13 10:33:11;;;;;;;0.80;0.70;;;10.90;99.90;;;;;;5006848;28;20449;-71
2021/03/13 10:35:38;;;;;;;0.93;0.60;;;10.90;99.90;;;;;;5011132;28;20427;-71
2021/03/13 10:38:09;;;;;;;0.60;0.40;;;10.90;99.90;;;;;;5000336;28;20451;-71
2021/03/13 10:40:37;;;;;;;2.17;0.50;;;10.90;99.90;;;;;;5007510;28;20459;-71
2021/03/13 10:43:24;;;;;;;0.50;0.43;;;10.90;99.90;;;;;;5000767;28;21050;-71
2021/03/13 10:45:55;;;;;;;0.90;0.50;;;10.90;99.90;;;;;;5002248;28;20470;-71
2021/03/13 10:48:21;;;;;;;3.53;0.77;;;10.90;99.90;;;;;;5001857;28;20792;-71
2021/03/13 10:50:47;;;;;;;2.20;0.55;;;10.90;99.90;;;;;;5010873;28;20937;-71
2021/03/13 10:53:35;;;;;;;0.57;0.50;;;11.00;99.90;;;;;;5007832;28;20185;-71
2021/03/13 10:56:06;;;;;;;0.73;0.50;;;11.00;99.90;;;;;;5008287;28;20281;-71
2021/03/13 10:58:37;;;;;;;0.90;0.70;;;11.00;99.90;;;;;;5004371;28;20897;-71
2021/03/13 11:01:07;;;;;;;1.27;0.70;;;10.90;99.90;;;;;;5004341;28;20506;-71
2021/03/13 11:03:33;;;;;;;3.03;0.70;;;10.90;99.90;;;;;;5003940;28;20797;-70
2021/03/13 11:05:59;;;;;;;1.67;0.90;;;10.90;99.90;;;;;;5006312;28;20905;-71
2021/03/13 11:08:26;;;;;;;1.83;0.70;;;10.90;99.90;;;;;;5001991;28;20460;-70
2021/03/13 11:10:53;;;;;;;0.90;0.77;;;10.90;99.90;;;;;;5007729;28;20186;-72
2021/03/13 11:13:19;;;;;;;0.68;0.50;;;11.00;99.90;;;;;;5002000;28;20910;-71
2021/03/13 11:15:45;;;;;;;0.70;0.40;;;11.00;99.90;;;;;;5003987;28;20224;-70
2021/03/13 11:18:11;;;;;;;1.53;1.43;;;11.00;99.90;;;;;;5004439;28;20439;-71
2021/03/13 11:20:38;;;;;;;1.43;0.50;;;11.10;99.90;;;;;;5004898;28;20467;-71
2021/03/13 11:23:04;;;;;;;2.07;0.70;;;11.10;99.90;;;;;;5005556;28;20549;-71
2021/03/13 11:25:29;;;;;;;1.23;1.10;;;11.20;99.90;;;;;;5003358;28;20476;-71
2021/03/13 11:27:56;;;;;;;1.87;0.60;;;11.20;99.90;;;;;;5014183;28;20535;-72
2021/03/13 11:30:22;;;;;;;3.13;0.70;;;11.20;99.90;;;;;;5013572;28;20210;-71
2021/03/13 11:32:48;;;;;;;0.50;0.40;;;11.20;99.90;;;;;;5013781;28;20439;-71
2021/03/13 11:35:14;;;;;;;0.40;0.40;;;11.30;99.90;;;;;;5012137;28;20540;-71
2021/03/13 11:37:40;;;;;;;3.43;0.60;;;11.30;99.90;;;;;;5013068;28;20654;-71
2021/03/13 11:40:09;;;;;;;2.77;0.43;;;11.40;99.90;;;;;;5011978;28;20514;-71
2021/03/13 11:42:34;;;;;;;1.10;0.43;;;11.40;99.90;;;;;;5010704;28;20192;-71
2021/03/13 11:45:00;;;;;;;0.70;0.40;;;11.40;99.90;;;;;;5007827;28;21003;-72
2021/03/13 11:47:26;;;;;;;1.20;0.60;;;11.40;99.90;;;;;;5002833;28;20493;-74
2021/03/13 11:49:53;;;;;;;0.50;0.40;;;11.40;99.90;;;;;;5012001;28;20216;-71
2021/03/13 11:52:19;;;;;;;0.83;0.63;;;11.50;99.90;;;;;;5012428;28;20464;-71
2021/03/13 11:54:48;;;;;;;1.60;0.80;;;11.50;99.90;;;;;;5011296;28;20457;-71
2021/03/13 11:57:15;;;;;;;0.73;0.57;;;11.50;99.90;;;;;;5003833;28;20510;-71
2021/03/13 11:59:45;;;;;;;1.17;0.50;;;11.40;99.90;;;;;;5008065;28;20463;-71
2021/03/13 12:02:12;;;;;;;0.93;0.93;;;11.50;99.90;;;;;;5012340;28;20479;-71
2021/03/13 12:04:38;;;;;;;1.87;0.63;;;11.50;99.90;;;;;;5011464;28;20817;-71
2021/03/13 12:07:04;;;;;;;2.00;0.40;;;11.50;99.90;;;;;;5008672;28;20455;-71
2021/03/13 12:09:29;;;;;;;1.80;0.40;;;11.40;99.90;;;;;;5004099;28;20252;-71
2021/03/13 12:11:55;;;;;;;0.67;0.40;;;11.40;99.90;;;;;;5011482;28;20183;-69
2021/03/13 12:14:20;;;;;;;1.37;0.40;;;11.30;99.90;;;;;;5007685;28;20192;-70
2021/03/13 12:16:46;;;;;;;1.57;0.50;;;11.30;99.90;;;;;;5012381;28;20192;-71
2021/03/13 12:19:12;;;;;;;0.60;0.40;;;11.20;99.90;;;;;;5010882;28;20215;-70
2021/03/13 12:21:39;;;;;;;3.03;1.43;;;11.10;99.90;;;;;;5013549;28;20194;-71
2021/03/13 12:24:06;;;;;;;1.53;0.70;;;11.10;99.90;;;;;;5008726;28;20441;-71
2021/03/13 12:26:32;;;;;;;1.17;0.70;;;11.10;99.90;;;;;;5012872;28;20824;-70
2021/03/13 12:28:57;;;;;;;1.07;0.40;;;11.10;99.90;;;;;;5012889;28;20456;-71
2021/03/13 12:31:23;;;;;;;0.77;0.40;;;11.10;99.90;;;;;;5004087;28;20181;-71
2021/03/13 12:33:48;;;;;;;0.70;0.40;;;11.00;99.90;;;;;;5004035;28;20184;-70
2021/03/13 12:36:14;;;;;;;0.60;0.50;;;11.00;99.90;;;;;;5007039;28;20227;-71
2021/03/13 12:38:39;;;;;;;4.80;0.57;;;11.10;99.90;;;;;;5007314;28;20698;-71
2021/03/13 12:41:06;;;;;;;0.90;0.40;;;11.30;99.90;;;;;;5008500;28;20200;-71
2021/03/13 12:43:32;;;;;;;1.07;0.50;;;11.40;99.90;;;;;;5002397;28;20399;-71
2021/03/13 12:45:58;;;;;;;0.50;0.50;;;11.40;99.90;;;;;;5005514;28;20480;-72
2021/03/13 12:48:23;;;;;;;0.80;0.40;;;11.40;99.90;;;;;;5009597;28;20545;-71
2021/03/13 12:50:51;;;;;;;0.77;0.40;;;11.30;99.90;;;;;;5008481;28;20967;-71
2021/03/13 12:53:17;;;;;;;1.33;0.60;;;11.00;99.90;;;;;;5003748;28;20174;-71
2021/03/13 12:55:43;;;;;;;1.57;0.40;;;10.90;99.90;;;;;;5005444;28;20444;-71
2021/03/13 12:58:09;;;;;;;0.50;0.50;;;10.60;99.90;;;;;;5001573;28;20181;-71
2021/03/13 13:00:35;;;;;;;1.63;0.50;;;10.40;99.90;;;;;;5004735;28;20514;-71